sensor_id;sensor_type;location;lat;lon;timestamp;temperature;humidity
51914;DHT22;37940;53.002;6.930;2023-04-03T00:00:04;1.90;99.90
51914;DHT22;37940;53.002;6.930;2023-04-03T00:02:30;0.90;99.90
51914;DHT22;37940;53.002;6.930;2023-04-03T00:04:56;0.90;99.90
51914;DHT22;37940;53.002;6.930;2023-04-03T00:07:21;0.90;99.90
51914;DHT22;37940;53.002;6.930;2023-04-03T00:09:47;0.80;99.90
51914;DHT22;37940;53.002;6.930;2023-04-03T00:12:13;0.80;99.90
51914;DHT22;37940;53.002;6.930;2023-04-03T00:14:38;1.50;99.90
51914;DHT22;37940;53.002;6.930;2023-04-03T00:17:04;0.80;99.90
51914;DHT22;37940;53.002;6.930;2023-04-03T00:19:30;0.80;99.90
51914;DHT22;37940;53.002;6.930;2023-04-03T00:21:56;0.80;99.90
51914;DHT22;37940;53.002;6.930;2023-04-03T00:24:22;0.80;99.90
51914;DHT22;37940;53.002;6.930;2023-04-03T00:26:47;0.90;99.90
51914;DHT22;37940;53.002;6.930;2023-04-03T00:29:13;0.80;99.90
51914;DHT22;37940;53.002;6.930;2023-04-03T00:31:39;0.80;99.90
51914;DHT22;37940;53.002;6.930;2023-04-03T00:34:05;1.50;99.90
51914;DHT22;37940;53.002;6.930;2023-04-03T00:36:31;0.70;99.90
51914;DHT22;37940;53.002;6.930;2023-04-03T00:38:57;0.70;99.90
51914;DHT22;37940;53.002;6.930;2023-04-03T00:41:22;0.70;99.90
51914;DHT22;37940;53.002;6.930;2023-04-03T00:43:48;0.60;99.90
51914;DHT22;37940;53.002;6.930;2023-04-03T00:46:14;1.90;99.90
51914;DHT22;37940;53.002;6.930;2023-04-03T00:48:42;1.90;99.90
51914;DHT22;37940;53.002;6.930;2023-04-03T00:51:13;1.50;99.90
51914;DHT22;37940;53.002;6.930;2023-04-03T00:53:46;0.60;99.90
51914;DHT22;37940;53.002;6.930;2023-04-03T00:56:15;0.50;99.90
51914;DHT22;37940;53.002;6.930;2023-04-03T00:58:50;0.50;99.90
51914;DHT22;37940;53.002;6.930;2023-04-03T01:01:24;1.20;99.90
51914;DHT22;37940;53.002;6.930;2023-04-03T01:03:50;0.40;99.90
51914;DHT22;37940;53.002;6.930;2023-04-03T01:06:18;0.40;99.90
51914;DHT22;37940;53.002;6.930;2023-04-03T01:08:48;0.40;99.90
51914;DHT22;37940;53.002;6.930;2023-04-03T01:11:15;1.00;99.90
51914;DHT22;37940;53.002;6.930;2023-04-03T01:13:41;1.20;99.90
51914;DHT22;37940;53.002;6.930;2023-04-03T01:16:07;0.20;99.90
51914;DHT22;37940;53.002;6.930;2023-04-03T01:18:34;0.20;99.90
51914;DHT22;37940;53.002;6.930;2023-04-03T01:24:18;0.60;99.90
51914;DHT22;37940;53.002;6.930;2023-04-03T01:26:48;0.00;99.90
51914;DHT22;37940;53.002;6.930;2023-04-03T01:29:14;0.00;99.90
51914;DHT22;37940;53.002;6.930;2023-04-03T01:32:09;-0.10;99.90
51914;DHT22;37940;53.002;6.930;2023-04-03T01:34:35;-0.10;99.90
51914;DHT22;37940;53.002;6.930;2023-04-03T01:37:00;-0.10;99.90
51914;DHT22;37940;53.002;6.930;2023-04-03T01:39:26;-0.10;99.90
51914;DHT22;37940;53.002;6.930;2023-04-03T01:41:52;-0.20;99.90
51914;DHT22;37940;53.002;6.930;2023-04-03T01:44:18;0.40;99.90
51914;DHT22;37940;53.002;6.930;2023-04-03T01:46:44;-0.20;99.90
51914;DHT22;37940;53.002;6.930;2023-04-03T01:49:10;1.00;99.90
51914;DHT22;37940;53.002;6.930;2023-04-03T01:51:35;-0.20;99.90
51914;DHT22;37940;53.002;6.930;2023-04-03T01:54:01;-0.30;99.90
51914;DHT22;37940;53.002;6.930;2023-04-03T01:56:27;-0.30;99.90
51914;DHT22;37940;53.002;6.930;2023-04-03T01:58:53;-0.30;99.90
51914;DHT22;37940;53.002;6.930;2023-04-03T02:01:19;-0.40;99.90
51914;DHT22;37940;53.002;6.930;2023-04-03T02:03:44;0.40;99.90
51914;DHT22;37940;53.002;6.930;2023-04-03T02:06:10;0.60;99.90
51914;DHT22;37940;53.002;6.930;2023-04-03T02:08:36;-0.50;99.90
51914;DHT22;37940;53.002;6.930;2023-04-03T02:11:02;-0.50;99.90
51914;DHT22;37940;53.002;6.930;2023-04-03T02:13:27;-0.50;99.90
51914;DHT22;37940;53.002;6.930;2023-04-03T02:15:53;-0.40;99.90
51914;DHT22;37940;53.002;6.930;2023-04-03T02:18:19;-0.50;99.90
51914;DHT22;37940;53.002;6.930;2023-04-03T02:20:46;0.60;99.90
51914;DHT22;37940;53.002;6.930;2023-04-03T02:23:12;-0.50;99.90
51914;DHT22;37940;53.002;6.930;2023-04-03T02:25:38;-0.60;99.90
51914;DHT22;37940;53.002;6.930;2023-04-03T02:28:04;-0.60;99.90
51914;DHT22;37940;53.002;6.930;2023-04-03T02:30:29;-0.60;99.90
51914;DHT22;37940;53.002;6.930;2023-04-03T02:32:55;-0.60;99.90
51914;DHT22;37940;53.002;6.930;2023-04-03T02:35:21;-0.60;99.90
51914;DHT22;37940;53.002;6.930;2023-04-03T02:37:47;-0.20;99.90
51914;DHT22;37940;53.002;6.930;2023-04-03T02:40:13;-0.70;99.90
51914;DHT22;37940;53.002;6.930;2023-04-03T02:42:39;-0.70;99.90
51914;DHT22;37940;53.002;6.930;2023-04-03T02:45:05;-0.80;99.90
51914;DHT22;37940;53.002;6.930;2023-04-03T02:47:31;-0.80;99.90
51914;DHT22;37940;53.002;6.930;2023-04-03T02:49:56;-0.30;99.90
51914;DHT22;37940;53.002;6.930;2023-04-03T02:52:22;-0.90;99.90
51914;DHT22;37940;53.002;6.930;2023-04-03T02:54:48;-0.90;99.90
51914;DHT22;37940;53.002;6.930;2023-04-03T02:57:13;-1.00;99.90
51914;DHT22;37940;53.002;6.930;2023-04-03T02:59:39;-1.00;99.90
51914;DHT22;37940;53.002;6.930;2023-04-03T03:02:07;-1.00;99.90
51914;DHT22;37940;53.002;6.930;2023-04-03T03:04:33;-1.10;99.90
51914;DHT22;37940;53.002;6.930;2023-04-03T03:06:59;-1.10;99.90
51914;DHT22;37940;53.002;6.930;2023-04-03T03:09:24;-1.10;99.90
51914;DHT22;37940;53.002;6.930;2023-04-03T03:11:52;-0.70;99.90
51914;DHT22;37940;53.002;6.930;2023-04-03T03:14:18;-1.30;99.90
51914;DHT22;37940;53.002;6.930;2023-04-03T03:16:43;-1.40;99.90
51914;DHT22;37940;53.002;6.930;2023-04-03T03:19:09;-1.40;99.90
51914;DHT22;37940;53.002;6.930;2023-04-03T03:21:35;-1.50;99.90
51914;DHT22;37940;53.002;6.930;2023-04-03T03:24:01;-1.50;99.90
51914;DHT22;37940;53.002;6.930;2023-04-03T03:26:27;-1.50;99.90
51914;DHT22;37940;53.002;6.930;2023-04-03T03:28:53;-1.50;99.90
51914;DHT22;37940;53.002;6.930;2023-04-03T03:31:18;-1.50;99.90
51914;DHT22;37940;53.002;6.930;2023-04-03T03:33:44;-1.50;99.90
51914;DHT22;37940;53.002;6.930;2023-04-03T03:36:10;-1.50;99.90
51914;DHT22;37940;53.002;6.930;2023-04-03T03:38:36;-1.40;99.90
51914;DHT22;37940;53.002;6.930;2023-04-03T03:41:02;-1.50;99.90
51914;DHT22;37940;53.002;6.930;2023-04-03T03:43:29;-1.40;99.90
51914;DHT22;37940;53.002;6.930;2023-04-03T03:45:55;-0.50;99.90
51914;DHT22;37940;53.002;6.930;2023-04-03T03:48:22;-1.50;99.90
51914;DHT22;37940;53.002;6.930;2023-04-03T03:50:48;-0.80;99.90
51914;DHT22;37940;53.002;6.930;2023-04-03T03:53:14;-1.60;99.90
51914;DHT22;37940;53.002;6.930;2023-04-03T03:55:40;-1.60;99.90
51914;DHT22;37940;53.002;6.930;2023-04-03T03:58:06;-1.60;99.90
51914;DHT22;37940;53.002;6.930;2023-04-03T04:00:32;-1.60;99.90
51914;DHT22;37940;53.002;6.930;2023-04-03T04:02:58;-1.60;99.90
51914;DHT22;37940;53.002;6.930;2023-04-03T04:05:24;-1.60;99.90
51914;DHT22;37940;53.002;6.930;2023-04-03T04:07:50;-1.60;99.90
51914;DHT22;37940;53.002;6.930;2023-04-03T04:10:16;-0.60;99.90
51914;DHT22;37940;53.002;6.930;2023-04-03T04:12:42;-1.60;99.90
51914;DHT22;37940;53.002;6.930;2023-04-03T04:15:08;-1.00;99.90
51914;DHT22;37940;53.002;6.930;2023-04-03T04:17:34;-1.60;99.90
51914;DHT22;37940;53.002;6.930;2023-04-03T04:20:01;-0.60;99.90
51914;DHT22;37940;53.002;6.930;2023-04-03T04:22:28;-1.50;99.90
51914;DHT22;37940;53.002;6.930;2023-04-03T04:24:53;-1.50;99.90
51914;DHT22;37940;53.002;6.930;2023-04-03T04:27:19;-1.50;99.90
51914;DHT22;37940;53.002;6.930;2023-04-03T04:29:45;-1.50;99.90
51914;DHT22;37940;53.002;6.930;2023-04-03T04:32:11;-1.50;99.90
51914;DHT22;37940;53.002;6.930;2023-04-03T04:34:36;-1.50;99.90
51914;DHT22;37940;53.002;6.930;2023-04-03T04:37:02;-1.50;99.90
51914;DHT22;37940;53.002;6.930;2023-04-03T04:39:28;-1.10;99.90
51914;DHT22;37940;53.002;6.930;2023-04-03T04:41:54;-1.40;99.90
51914;DHT22;37940;53.002;6.930;2023-04-03T04:44:20;-1.50;99.90
51914;DHT22;37940;53.002;6.930;2023-04-03T04:46:46;-1.50;99.90
51914;DHT22;37940;53.002;6.930;2023-04-03T04:49:11;-0.70;99.90
51914;DHT22;37940;53.002;6.930;2023-04-03T04:51:37;-1.50;99.90
51914;DHT22;37940;53.002;6.930;2023-04-03T04:54:03;-1.40;99.90
51914;DHT22;37940;53.002;6.930;2023-04-03T04:56:28;-1.60;99.90
51914;DHT22;37940;53.002;6.930;2023-04-03T04:58:54;-1.60;99.90
51914;DHT22;37940;53.002;6.930;2023-04-03T05:01:20;-1.60;99.90
51914;DHT22;37940;53.002;6.930;2023-04-03T05:03:47;-1.30;99.90
51914;DHT22;37940;53.002;6.930;2023-04-03T05:06:13;-0.30;99.90
51914;DHT22;37940;53.002;6.930;2023-04-03T05:08:39;-1.60;99.90
51914;DHT22;37940;53.002;6.930;2023-04-03T05:11:05;-1.50;99.90
51914;DHT22;37940;53.002;6.930;2023-04-03T05:13:31;-1.50;99.90
51914;DHT22;37940;53.002;6.930;2023-04-03T05:15:56;-0.50;99.90
51914;DHT22;37940;53.002;6.930;2023-04-03T05:18:22;-1.50;99.90
51914;DHT22;37940;53.002;6.930;2023-04-03T05:20:49;-1.50;99.90
51914;DHT22;37940;53.002;6.930;2023-04-03T05:23:16;-1.50;99.90
51914;DHT22;37940;53.002;6.930;2023-04-03T05:25:41;-1.50;99.90
51914;DHT22;37940;53.002;6.930;2023-04-03T05:28:09;-1.40;99.90
51914;DHT22;37940;53.002;6.930;2023-04-03T05:30:35;-1.40;99.90
51914;DHT22;37940;53.002;6.930;2023-04-03T05:33:01;-1.40;99.90
51914;DHT22;37940;53.002;6.930;2023-04-03T05:35:27;-0.10;99.90
51914;DHT22;37940;53.002;6.930;2023-04-03T05:37:53;-1.40;99.90
51914;DHT22;37940;53.002;6.930;2023-04-03T05:40:18;-1.30;99.90
51914;DHT22;37940;53.002;6.930;2023-04-03T05:42:44;-0.70;99.90
51914;DHT22;37940;53.002;6.930;2023-04-03T05:45:10;0.50;99.90
51914;DHT22;37940;53.002;6.930;2023-04-03T05:47:36;2.50;99.90
51914;DHT22;37940;53.002;6.930;2023-04-03T05:50:02;3.40;99.90
51914;DHT22;37940;53.002;6.930;2023-04-03T05:52:49;4.00;99.90
51914;DHT22;37940;53.002;6.930;2023-04-03T05:55:15;5.00;99.90
51914;DHT22;37940;53.002;6.930;2023-04-03T05:57:41;6.50;99.90
51914;DHT22;37940;53.002;6.930;2023-04-03T06:00:08;5.50;99.90
51914;DHT22;37940;53.002;6.930;2023-04-03T06:02:38;5.70;99.90
51914;DHT22;37940;53.002;6.930;2023-04-03T06:05:04;6.00;99.90
51914;DHT22;37940;53.002;6.930;2023-04-03T06:07:30;6.00;99.90
51914;DHT22;37940;53.002;6.930;2023-04-03T06:09:56;6.30;99.90
51914;DHT22;37940;53.002;6.930;2023-04-03T06:12:23;7.20;99.90
51914;DHT22;37940;53.002;6.930;2023-04-03T06:14:48;7.30;99.90
51914;DHT22;37940;53.002;6.930;2023-04-03T06:17:15;7.60;99.90
51914;DHT22;37940;53.002;6.930;2023-04-03T06:19:42;7.30;99.90
51914;DHT22;37940;53.002;6.930;2023-04-03T06:22:07;7.70;99.90
51914;DHT22;37940;53.002;6.930;2023-04-03T06:24:33;7.70;99.90
51914;DHT22;37940;53.002;6.930;2023-04-03T06:26:59;7.50;99.90
51914;DHT22;37940;53.002;6.930;2023-04-03T06:29:25;6.50;99.90
51914;DHT22;37940;53.002;6.930;2023-04-03T06:31:51;6.10;99.90
51914;DHT22;37940;53.002;6.930;2023-04-03T06:34:17;5.80;99.90
51914;DHT22;37940;53.002;6.930;2023-04-03T06:36:44;6.40;99.90
51914;DHT22;37940;53.002;6.930;2023-04-03T06:39:16;7.30;99.90
51914;DHT22;37940;53.002;6.930;2023-04-03T06:41:42;7.60;99.90
51914;DHT22;37940;53.002;6.930;2023-04-03T06:44:08;8.20;99.90
51914;DHT22;37940;53.002;6.930;2023-04-03T06:46:37;8.50;99.90
51914;DHT22;37940;53.002;6.930;2023-04-03T06:49:03;9.00;99.90
51914;DHT22;37940;53.002;6.930;2023-04-03T06:51:30;9.60;99.90
51914;DHT22;37940;53.002;6.930;2023-04-03T06:53:58;9.60;99.90
51914;DHT22;37940;53.002;6.930;2023-04-03T06:56:25;9.70;99.90
51914;DHT22;37940;53.002;6.930;2023-04-03T06:58:52;9.50;99.90
51914;DHT22;37940;53.002;6.930;2023-04-03T07:01:20;8.80;99.90
51914;DHT22;37940;53.002;6.930;2023-04-03T07:03:47;8.30;99.90
51914;DHT22;37940;53.002;6.930;2023-04-03T07:06:15;8.50;99.90
51914;DHT22;37940;53.002;6.930;2023-04-03T07:08:42;8.10;99.90
51914;DHT22;37940;53.002;6.930;2023-04-03T07:11:09;7.60;99.90
51914;DHT22;37940;53.002;6.930;2023-04-03T07:13:35;6.80;99.90
51914;DHT22;37940;53.002;6.930;2023-04-03T07:16:02;6.50;99.90
51914;DHT22;37940;53.002;6.930;2023-04-03T07:18:29;6.10;99.90
51914;DHT22;37940;53.002;6.930;2023-04-03T07:20:55;6.20;99.90
51914;DHT22;37940;53.002;6.930;2023-04-03T07:23:21;6.00;99.90
51914;DHT22;37940;53.002;6.930;2023-04-03T07:25:48;5.50;99.90
51914;DHT22;37940;53.002;6.930;2023-04-03T07:28:14;5.10;99.90
51914;DHT22;37940;53.002;6.930;2023-04-03T07:30:48;5.60;99.90
51914;DHT22;37940;53.002;6.930;2023-04-03T07:33:16;5.30;99.90
51914;DHT22;37940;53.002;6.930;2023-04-03T07:35:43;5.20;99.90
51914;DHT22;37940;53.002;6.930;2023-04-03T07:38:10;4.80;99.90
51914;DHT22;37940;53.002;6.930;2023-04-03T07:40:36;4.50;99.90
51914;DHT22;37940;53.002;6.930;2023-04-03T07:43:02;4.40;99.90
51914;DHT22;37940;53.002;6.930;2023-04-03T07:45:28;4.30;99.90
51914;DHT22;37940;53.002;6.930;2023-04-03T07:47:54;4.20;99.90
51914;DHT22;37940;53.002;6.930;2023-04-03T07:50:22;4.60;99.90
51914;DHT22;37940;53.002;6.930;2023-04-03T07:52:48;4.10;99.90
51914;DHT22;37940;53.002;6.930;2023-04-03T07:55:14;4.10;99.90
51914;DHT22;37940;53.002;6.930;2023-04-03T07:57:40;3.90;99.90
51914;DHT22;37940;53.002;6.930;2023-04-03T08:00:07;3.80;99.90
51914;DHT22;37940;53.002;6.930;2023-04-03T08:02:33;3.80;99.90
51914;DHT22;37940;53.002;6.930;2023-04-03T08:04:58;3.80;99.90
51914;DHT22;37940;53.002;6.930;2023-04-03T08:07:25;3.80;99.90
51914;DHT22;37940;53.002;6.930;2023-04-03T08:09:51;3.80;99.90
51914;DHT22;37940;53.002;6.930;2023-04-03T08:12:17;5.10;99.90
51914;DHT22;37940;53.002;6.930;2023-04-03T08:14:43;5.00;99.90
51914;DHT22;37940;53.002;6.930;2023-04-03T08:17:09;4.30;99.90
51914;DHT22;37940;53.002;6.930;2023-04-03T08:19:38;4.00;99.90
51914;DHT22;37940;53.002;6.930;2023-04-03T08:22:07;4.10;99.90
51914;DHT22;37940;53.002;6.930;2023-04-03T08:24:33;4.10;99.90
51914;DHT22;37940;53.002;6.930;2023-04-03T08:27:00;4.10;99.90
51914;DHT22;37940;53.002;6.930;2023-04-03T08:29:26;4.20;99.90
51914;DHT22;37940;53.002;6.930;2023-04-03T08:31:52;4.20;99.90
51914;DHT22;37940;53.002;6.930;2023-04-03T08:34:18;4.20;99.90
51914;DHT22;37940;53.002;6.930;2023-04-03T08:36:45;4.20;99.90
51914;DHT22;37940;53.002;6.930;2023-04-03T08:39:11;4.20;99.90
51914;DHT22;37940;53.002;6.930;2023-04-03T08:41:39;4.50;99.90
51914;DHT22;37940;53.002;6.930;2023-04-03T08:47:37;4.40;99.90
51914;DHT22;37940;53.002;6.930;2023-04-03T08:50:17;4.40;99.90
51914;DHT22;37940;53.002;6.930;2023-04-03T08:52:52;4.50;99.90
51914;DHT22;37940;53.002;6.930;2023-04-03T08:57:47;4.60;99.90
51914;DHT22;37940;53.002;6.930;2023-04-03T09:00:18;5.70;99.90
51914;DHT22;37940;53.002;6.930;2023-04-03T09:02:48;4.70;99.90
51914;DHT22;37940;53.002;6.930;2023-04-03T09:05:17;4.80;99.90
51914;DHT22;37940;53.002;6.930;2023-04-03T09:07:47;4.90;99.90
51914;DHT22;37940;53.002;6.930;2023-04-03T09:10:19;5.20;99.90
51914;DHT22;37940;53.002;6.930;2023-04-03T09:13:40;5.20;99.90
51914;DHT22;37940;53.002;6.930;2023-04-03T09:16:02;5.30;99.90
51914;DHT22;37940;53.002;6.930;2023-04-03T09:18:39;5.40;99.90
51914;DHT22;37940;53.002;6.930;2023-04-03T09:21:27;6.00;99.90
51914;DHT22;37940;53.002;6.930;2023-04-03T09:23:58;5.60;99.90
51914;DHT22;37940;53.002;6.930;2023-04-03T09:26:30;5.70;99.90
51914;DHT22;37940;53.002;6.930;2023-04-03T09:29:02;5.80;99.90
51914;DHT22;37940;53.002;6.930;2023-04-03T09:31:36;5.90;99.90
51914;DHT22;37940;53.002;6.930;2023-04-03T09:34:05;6.00;99.90
51914;DHT22;37940;53.002;6.930;2023-04-03T09:36:44;6.10;99.90
51914;DHT22;37940;53.002;6.930;2023-04-03T09:39:16;6.60;99.90
51914;DHT22;37940;53.002;6.930;2023-04-03T09:41:58;6.40;99.90
51914;DHT22;37940;53.002;6.930;2023-04-03T09:46:58;6.60;99.90
51914;DHT22;37940;53.002;6.930;2023-04-03T09:49:25;6.70;99.90
51914;DHT22;37940;53.002;6.930;2023-04-03T09:51:51;6.80;99.90
51914;DHT22;37940;53.002;6.930;2023-04-03T09:54:38;6.90;99.90
51914;DHT22;37940;53.002;6.930;2023-04-03T09:57:12;7.10;99.90
51914;DHT22;37940;53.002;6.930;2023-04-03T10:00:02;7.10;99.90
51914;DHT22;37940;53.002;6.930;2023-04-03T10:04:56;7.10;99.90
51914;DHT22;37940;53.002;6.930;2023-04-03T10:07:31;7.10;99.90
51914;DHT22;37940;53.002;6.930;2023-04-03T10:09:59;7.30;99.90
51914;DHT22;37940;53.002;6.930;2023-04-03T10:12:25;7.50;99.90
51914;DHT22;37940;53.002;6.930;2023-04-03T10:14:55;7.70;98.60
51914;DHT22;37940;53.002;6.930;2023-04-03T10:17:32;7.60;99.90
51914;DHT22;37940;53.002;6.930;2023-04-03T10:20:23;7.60;99.90
51914;DHT22;37940;53.002;6.930;2023-04-03T10:23:21;7.60;96.80
51914;DHT22;37940;53.002;6.930;2023-04-03T10:28:31;7.60;96.90
51914;DHT22;37940;53.002;6.930;2023-04-03T10:31:03;7.70;97.40
51914;DHT22;37940;53.002;6.930;2023-04-03T10:36:38;7.80;96.70
51914;DHT22;37940;53.002;6.930;2023-04-03T10:39:15;7.80;94.60
51914;DHT22;37940;53.002;6.930;2023-04-03T10:42:13;7.90;94.10
51914;DHT22;37940;53.002;6.930;2023-04-03T10:47:20;8.00;97.80
51914;DHT22;37940;53.002;6.930;2023-04-03T10:53:24;8.10;93.60
51914;DHT22;37940;53.002;6.930;2023-04-03T10:56:27;8.30;96.10
51914;DHT22;37940;53.002;6.930;2023-04-03T11:01:56;8.30;97.00
51914;DHT22;37940;53.002;6.930;2023-04-03T11:04:25;8.30;95.00
51914;DHT22;37940;53.002;6.930;2023-04-03T11:07:28;8.30;92.00
51914;DHT22;37940;53.002;6.930;2023-04-03T11:10:10;8.30;95.30
51914;DHT22;37940;53.002;6.930;2023-04-03T11:12:48;8.40;92.30
51914;DHT22;37940;53.002;6.930;2023-04-03T11:15:29;8.30;91.70
51914;DHT22;37940;53.002;6.930;2023-04-03T11:18:13;8.40;94.60
51914;DHT22;37940;53.002;6.930;2023-04-03T11:21:06;8.40;92.10
51914;DHT22;37940;53.002;6.930;2023-04-03T11:23:34;8.40;93.50
51914;DHT22;37940;53.002;6.930;2023-04-03T11:26:12;8.50;94.70
51914;DHT22;37940;53.002;6.930;2023-04-03T11:28:38;8.50;93.40
51914;DHT22;37940;53.002;6.930;2023-04-03T11:34:03;8.40;91.50
51914;DHT22;37940;53.002;6.930;2023-04-03T11:36:34;8.30;91.50
51914;DHT22;37940;53.002;6.930;2023-04-03T11:39:26;8.30;92.80
51914;DHT22;37940;53.002;6.930;2023-04-03T11:41:53;8.20;90.60
51914;DHT22;37940;53.002;6.930;2023-04-03T11:46:59;8.30;90.60
51914;DHT22;37940;53.002;6.930;2023-04-03T11:49:50;8.30;93.10
51914;DHT22;37940;53.002;6.930;2023-04-03T12:24:28;8.80;90.50
51914;DHT22;37940;53.002;6.930;2023-04-03T12:35:42;8.80;91.60
51914;DHT22;37940;53.002;6.930;2023-04-03T12:46:42;9.00;92.10
51914;DHT22;37940;53.002;6.930;2023-04-03T12:49:39;9.10;92.40
51914;DHT22;37940;53.002;6.930;2023-04-03T12:55:00;8.90;90.10
51914;DHT22;37940;53.002;6.930;2023-04-03T12:57:30;8.90;90.90
51914;DHT22;37940;53.002;6.930;2023-04-03T12:59:58;8.80;90.30
51914;DHT22;37940;53.002;6.930;2023-04-03T13:02:28;8.90;90.60
51914;DHT22;37940;53.002;6.930;2023-04-03T13:04:57;9.00;90.50
51914;DHT22;37940;53.002;6.930;2023-04-03T13:07:35;9.00;90.10
51914;DHT22;37940;53.002;6.930;2023-04-03T13:13:07;9.10;90.20
51914;DHT22;37940;53.002;6.930;2023-04-03T13:15:44;9.10;90.40
51914;DHT22;37940;53.002;6.930;2023-04-03T13:18:31;9.20;90.30
51914;DHT22;37940;53.002;6.930;2023-04-03T13:21:55;9.10;90.40
51914;DHT22;37940;53.002;6.930;2023-04-03T13:23:50;9.00;90.10
51914;DHT22;37940;53.002;6.930;2023-04-03T13:26:18;9.00;90.10
51914;DHT22;37940;53.002;6.930;2023-04-03T13:28:45;8.90;89.00
51914;DHT22;37940;53.002;6.930;2023-04-03T13:36:34;9.20;90.40
51914;DHT22;37940;53.002;6.930;2023-04-03T13:41:39;9.20;89.70
51914;DHT22;37940;53.002;6.930;2023-04-03T13:46:50;9.30;90.40
51914;DHT22;37940;53.002;6.930;2023-04-03T13:49:26;9.20;85.90
51914;DHT22;37940;53.002;6.930;2023-04-03T13:51:53;9.10;90.70
51914;DHT22;37940;53.002;6.930;2023-04-03T13:54:22;9.10;88.10
51914;DHT22;37940;53.002;6.930;2023-04-03T13:56:57;9.00;88.60
51914;DHT22;37940;53.002;6.930;2023-04-03T13:59:29;9.00;86.80
51914;DHT22;37940;53.002;6.930;2023-04-03T14:02:14;9.10;88.40
51914;DHT22;37940;53.002;6.930;2023-04-03T14:07:06;9.00;90.20
51914;DHT22;37940;53.002;6.930;2023-04-03T14:09:31;9.10;87.70
51914;DHT22;37940;53.002;6.930;2023-04-03T14:12:02;9.20;89.70
51914;DHT22;37940;53.002;6.930;2023-04-03T14:14:32;9.10;89.20
51914;DHT22;37940;53.002;6.930;2023-04-03T14:17:01;9.10;90.20
51914;DHT22;37940;53.002;6.930;2023-04-03T14:19:32;9.30;90.70
51914;DHT22;37940;53.002;6.930;2023-04-03T14:21:59;9.30;90.30
51914;DHT22;37940;53.002;6.930;2023-04-03T14:24:26;9.30;87.50
51914;DHT22;37940;53.002;6.930;2023-04-03T14:26:54;9.30;90.90
51914;DHT22;37940;53.002;6.930;2023-04-03T14:29:20;9.20;83.40
51914;DHT22;37940;53.002;6.930;2023-04-03T14:31:48;9.20;85.50
51914;DHT22;37940;53.002;6.930;2023-04-03T14:34:14;9.10;86.00
51914;DHT22;37940;53.002;6.930;2023-04-03T14:36:44;9.10;87.90
51914;DHT22;37940;53.002;6.930;2023-04-03T14:39:17;9.10;88.60
51914;DHT22;37940;53.002;6.930;2023-04-03T14:41:46;9.10;87.30
51914;DHT22;37940;53.002;6.930;2023-04-03T14:44:12;9.10;87.80
51914;DHT22;37940;53.002;6.930;2023-04-03T14:46:43;9.10;84.90
51914;DHT22;37940;53.002;6.930;2023-04-03T14:49:14;9.10;87.30
51914;DHT22;37940;53.002;6.930;2023-04-03T14:51:41;9.10;87.80
51914;DHT22;37940;53.002;6.930;2023-04-03T14:54:13;8.90;86.80
51914;DHT22;37940;53.002;6.930;2023-04-03T14:56:40;9.10;85.60
51914;DHT22;37940;53.002;6.930;2023-04-03T14:59:11;9.10;85.90
51914;DHT22;37940;53.002;6.930;2023-04-03T15:01:37;9.10;86.40
51914;DHT22;37940;53.002;6.930;2023-04-03T15:04:13;9.00;87.60
51914;DHT22;37940;53.002;6.930;2023-04-03T15:06:40;9.00;87.90
51914;DHT22;37940;53.002;6.930;2023-04-03T15:09:18;9.00;86.10
51914;DHT22;37940;53.002;6.930;2023-04-03T15:11:44;8.90;86.80
51914;DHT22;37940;53.002;6.930;2023-04-03T15:14:10;8.90;88.90
51914;DHT22;37940;53.002;6.930;2023-04-03T15:16:36;9.00;87.80
51914;DHT22;37940;53.002;6.930;2023-04-03T15:19:02;9.00;86.10
51914;DHT22;37940;53.002;6.930;2023-04-03T15:21:28;9.20;85.40
51914;DHT22;37940;53.002;6.930;2023-04-03T15:23:54;9.40;87.40
51914;DHT22;37940;53.002;6.930;2023-04-03T15:26:19;9.00;86.80
51914;DHT22;37940;53.002;6.930;2023-04-03T15:28:46;9.00;87.60
51914;DHT22;37940;53.002;6.930;2023-04-03T15:31:12;9.00;87.50
51914;DHT22;37940;53.002;6.930;2023-04-03T15:33:38;9.00;88.10
51914;DHT22;37940;53.002;6.930;2023-04-03T15:36:05;9.00;88.80
51914;DHT22;37940;53.002;6.930;2023-04-03T15:38:31;8.90;86.50
51914;DHT22;37940;53.002;6.930;2023-04-03T15:40:57;8.80;86.50
51914;DHT22;37940;53.002;6.930;2023-04-03T15:43:22;8.80;87.80
51914;DHT22;37940;53.002;6.930;2023-04-03T15:45:49;8.80;87.30
51914;DHT22;37940;53.002;6.930;2023-04-03T15:48:16;8.70;84.80
51914;DHT22;37940;53.002;6.930;2023-04-03T15:50:42;8.60;85.50
51914;DHT22;37940;53.002;6.930;2023-04-03T15:53:08;8.60;86.40
51914;DHT22;37940;53.002;6.930;2023-04-03T15:55:36;8.70;85.00
51914;DHT22;37940;53.002;6.930;2023-04-03T15:58:05;8.70;87.10
51914;DHT22;37940;53.002;6.930;2023-04-03T16:00:31;8.70;85.70
51914;DHT22;37940;53.002;6.930;2023-04-03T16:03:00;8.60;86.70
51914;DHT22;37940;53.002;6.930;2023-04-03T16:05:29;8.60;86.20
51914;DHT22;37940;53.002;6.930;2023-04-03T16:07:57;8.60;84.50
51914;DHT22;37940;53.002;6.930;2023-04-03T16:10:24;8.50;84.50
51914;DHT22;37940;53.002;6.930;2023-04-03T16:12:50;8.40;84.10
51914;DHT22;37940;53.002;6.930;2023-04-03T16:15:16;8.40;86.70
51914;DHT22;37940;53.002;6.930;2023-04-03T16:17:42;8.30;85.30
51914;DHT22;37940;53.002;6.930;2023-04-03T16:20:10;8.30;85.20
51914;DHT22;37940;53.002;6.930;2023-04-03T16:22:36;8.20;85.60
51914;DHT22;37940;53.002;6.930;2023-04-03T16:25:04;8.20;86.40
51914;DHT22;37940;53.002;6.930;2023-04-03T16:27:29;8.20;87.90
51914;DHT22;37940;53.002;6.930;2023-04-03T16:29:59;8.10;83.80
51914;DHT22;37940;53.002;6.930;2023-04-03T16:32:27;8.10;85.90
51914;DHT22;37940;53.002;6.930;2023-04-03T16:34:54;8.00;85.60
51914;DHT22;37940;53.002;6.930;2023-04-03T16:37:20;8.00;86.50
51914;DHT22;37940;53.002;6.930;2023-04-03T16:39:46;7.90;87.00
51914;DHT22;37940;53.002;6.930;2023-04-03T16:42:12;7.90;86.50
51914;DHT22;37940;53.002;6.930;2023-04-03T16:44:38;7.80;87.50
51914;DHT22;37940;53.002;6.930;2023-04-03T16:47:06;7.80;86.30
51914;DHT22;37940;53.002;6.930;2023-04-03T16:49:32;7.70;86.40
51914;DHT22;37940;53.002;6.930;2023-04-03T16:52:00;7.70;86.70
51914;DHT22;37940;53.002;6.930;2023-04-03T16:54:26;7.60;87.10
51914;DHT22;37940;53.002;6.930;2023-04-03T16:56:52;7.50;86.80
51914;DHT22;37940;53.002;6.930;2023-04-03T16:59:17;7.50;87.80
51914;DHT22;37940;53.002;6.930;2023-04-03T17:01:43;7.40;89.30
51914;DHT22;37940;53.002;6.930;2023-04-03T17:04:09;7.40;89.30
51914;DHT22;37940;53.002;6.930;2023-04-03T17:06:35;7.30;89.60
51914;DHT22;37940;53.002;6.930;2023-04-03T17:09:00;7.30;89.60
51914;DHT22;37940;53.002;6.930;2023-04-03T17:11:27;7.20;90.40
51914;DHT22;37940;53.002;6.930;2023-04-03T17:13:53;7.20;90.40
51914;DHT22;37940;53.002;6.930;2023-04-03T17:16:19;7.10;90.00
51914;DHT22;37940;53.002;6.930;2023-04-03T17:18:45;7.10;89.70
51914;DHT22;37940;53.002;6.930;2023-04-03T17:21:16;7.10;90.00
51914;DHT22;37940;53.002;6.930;2023-04-03T17:23:45;7.00;90.80
51914;DHT22;37940;53.002;6.930;2023-04-03T17:26:14;6.90;91.10
51914;DHT22;37940;53.002;6.930;2023-04-03T17:28:40;6.90;92.10
51914;DHT22;37940;53.002;6.930;2023-04-03T17:31:07;6.80;94.20
51914;DHT22;37940;53.002;6.930;2023-04-03T17:33:33;6.70;95.90